Time;durP1;ratioP1;P1;durP2;ratioP2;P2;SDS_P1;SDS_P2;PMS_P1;PMS_P2;Temp;Humidity;BMP_temperature;BMP_pressure;BME280_temperature;BME280_humidity;BME280_pressure;Samples;Min_cycle;Max_cycle;Signal;HPM_P1;HPM_P2
2023/07/11 00:00:50;;;;;;;;;6.25;5.75;;;;;26.61;34.67;101218.91;4942035;28;45455;-73
2023/07/11 00:03:15;;;;;;;;;4.50;4.00;;;;;26.73;34.24;101236.16;4940569;28;45441;-72
2023/07/11 00:05:41;;;;;;;;;8.00;6.00;;;;;26.69;34.95;101229.22;4941207;28;45267;-74
2023/07/11 00:08:10;;;;;;;;;5.00;4.00;;;;;26.43;34.64;101187.72;4940864;28;45401;-73
2023/07/11 00:10:35;;;;;;;;;5.75;3.50;;;;;26.70;35.07;101235.47;4941620;28;45494;-74
2023/07/11 00:13:02;;;;;;;;;5.25;4.25;;;;;26.71;34.94;101237.19;4941843;28;45332;-74
2023/07/11 00:15:28;;;;;;;;;5.00;4.50;;;;;26.70;34.81;101233.66;4941055;28;45480;-74
2023/07/11 00:17:54;;;;;;;;;6.00;5.00;;;;;26.67;35.16;101224.88;4940078;28;45348;-75
2023/07/11 00:20:20;;;;;;;;;5.50;4.00;;;;;26.12;34.98;101141.13;4955606;28;46509;-74
2023/07/11 00:22:46;;;;;;;;;3.25;2.25;;;;;26.45;35.37;101193.88;4941477;28;45358;-74
2023/07/11 00:25:12;;;;;;;;;3.25;3.25;;;;;26.40;35.27;101179.84;4940584;28;45463;-75
2023/07/11 00:27:39;;;;;;;;;6.00;4.25;;;;;26.36;35.61;101191.69;4940831;28;45638;-74
2023/07/11 00:30:06;;;;;;;;;3.25;3.25;;;;;26.53;35.88;101222.97;4940224;28;45494;-75
2023/07/11 00:32:32;;;;;;;;;5.50;4.25;;;;;26.37;35.73;101202.38;4941031;28;45417;-74
2023/07/11 00:34:58;;;;;;;;;6.50;3.50;;;;;26.34;35.80;101197.19;4941933;28;45516;-73
2023/07/11 00:37:25;;;;;;;;;4.50;4.00;;;;;26.33;36.20;101199.94;4941154;28;45475;-73
2023/07/11 00:39:50;;;;;;;;;4.50;4.00;;;;;26.39;35.95;101213.03;4940690;28;45406;-74
2023/07/11 00:42:16;;;;;;;;;8.00;5.25;;;;;26.25;36.21;101188.78;4948964;28;45420;-74
2023/07/11 00:45:04;;;;;;;;;5.25;5.00;;;;;26.12;35.88;101165.28;4958319;28;45454;-74
2023/07/11 00:47:31;;;;;;;;;7.25;4.25;;;;;26.27;35.95;101200.28;4947354;28;45436;-70
2023/07/11 00:50:04;;;;;;;;;4.75;4.50;;;;;25.80;35.92;101116.09;4941877;28;45616;-75
2023/07/11 00:52:31;;;;;;;;;3.75;3.75;;;;;26.32;36.42;101201.75;4942065;28;45433;-75
2023/07/11 00:55:01;;;;;;;;;6.00;3.00;;;;;26.14;36.06;101179.50;4940334;28;45260;-76
2023/07/11 00:57:31;;;;;;;;;4.75;4.75;;;;;26.29;36.16;101204.63;4966246;28;45653;-75
2023/07/11 00:59:56;;;;;;;;;5.75;5.75;;;;;26.09;36.21;101164.59;4959465;28;45977;-73
2023/07/11 01:02:26;;;;;;;;;5.25;4.00;;;;;26.04;36.54;101169.38;4957751;28;45402;-75
2023/07/11 01:04:53;;;;;;;;;4.50;4.25;;;;;26.14;36.37;101179.50;4959366;28;45439;-74
2023/07/11 01:07:23;;;;;;;;;4.75;4.50;;;;;26.21;36.55;101201.50;4961014;28;45310;-74
2023/07/11 01:09:49;;;;;;;;;4.50;4.00;;;;;26.16;36.45;101187.47;4959679;28;46458;-76
2023/07/11 01:12:16;;;;;;;;;3.25;2.50;;;;;26.22;36.46;101204.09;4959132;28;45501;-74
2023/07/11 01:14:46;;;;;;;;;6.25;3.25;;;;;26.12;36.74;101191.28;4959563;28;45398;-75
2023/07/11 01:17:26;;;;;;;;;2.75;2.75;;;;;26.02;37.25;101193.59;4959244;28;45306;-74
2023/07/11 01:19:54;;;;;;;;;3.50;3.50;;;;;25.71;37.23;101149.66;4959416;28;45505;-74
2023/07/11 01:22:20;;;;;;;;;5.00;4.00;;;;;26.05;36.96;101195.25;4959654;28;45454;-73
2023/07/11 01:24:46;;;;;;;;;4.75;3.50;;;;;26.08;36.93;101206.69;4959507;28;45370;-73
2023/07/11 01:27:12;;;;;;;;;3.50;3.50;;;;;25.91;36.77;101161.13;4959224;28;45549;-75
2023/07/11 01:29:38;;;;;;;;;4.00;4.00;;;;;26.01;37.01;101189.19;4959125;28;46121;-75
2023/07/11 01:32:04;;;;;;;;;3.50;3.50;;;;;26.02;37.42;101207.03;4958860;28;45405;-74
2023/07/11 01:34:33;;;;;;;;;2.50;2.50;;;;;25.99;37.55;101197.31;4974133;28;45479;-74
2023/07/11 01:36:58;;;;;;;;;5.00;3.75;;;;;25.69;37.44;101164.09;4959245;28;45372;-74
2023/07/11 01:39:25;;;;;;;;;4.50;3.75;;;;;25.52;37.52;101139.06;4957103;28;47213;-75
2023/07/11 01:41:51;;;;;;;;;2.00;2.00;;;;;25.82;37.56;101183.94;4958308;28;45428;-74
2023/07/11 01:44:17;;;;;;;;;4.00;4.00;;;;;25.48;37.86;101125.88;4957141;28;45588;-75
2023/07/11 01:46:42;;;;;;;;;3.75;3.50;;;;;25.89;37.73;101189.84;4958725;28;45536;-74
2023/07/11 01:49:08;;;;;;;;;4.25;4.25;;;;;25.78;37.62;101166.28;4973276;28;46795;-74
2023/07/11 01:51:33;;;;;;;;;3.25;3.00;;;;;25.88;37.71;101185.44;4957549;28;45400;-74
2023/07/11 01:53:59;;;;;;;;;4.00;4.00;;;;;25.89;37.70;101187.16;4959631;28;45397;-74
2023/07/11 01:56:25;;;;;;;;;4.75;3.25;;;;;25.80;37.96;101180.47;4960102;28;45349;-75
2023/07/11 01:58:50;;;;;;;;;4.75;4.75;;;;;25.49;37.69;101120.47;4959849;28;45437;-74
2023/07/11 02:01:16;;;;;;;;;4.00;4.00;;;;;25.82;37.69;101170.53;4959231;28;45551;-74
2023/07/11 02:03:41;;;;;;;;;8.75;3.75;;;;;25.73;37.51;101144.22;4958447;28;45708;-73
2023/07/11 02:06:09;;;;;;;;;4.00;4.00;;;;;25.58;37.75;101114.59;4958975;28;45413;-74
2023/07/11 02:08:35;;;;;;;;;7.25;4.75;;;;;25.00;37.89;101034.59;4957608;28;46375;-74
2023/07/11 02:11:01;;;;;;;;;3.25;3.25;;;;;25.91;38.05;101170.06;4958949;28;45233;-74
2023/07/11 02:13:26;;;;;;;;;5.00;3.50;;;;;25.85;38.08;101153.41;4959717;28;45355;-74
2023/07/11 02:15:53;;;;;;;;;6.00;4.25;;;;;25.69;38.00;101138.13;4959940;28;45440;-73
2023/07/11 02:18:19;;;;;;;;;4.75;3.75;;;;;25.61;38.42;101113.56;4958538;28;45471;-74
2023/07/11 02:20:45;;;;;;;;;5.00;5.00;;;;;25.09;38.42;101022.53;4958500;28;45433;-75
2023/07/11 02:23:13;;;;;;;;;5.00;5.00;;;;;25.75;38.19;101131.56;4973451;28;45555;-74
2023/07/11 02:25:39;;;;;;;;;6.50;5.00;;;;;25.58;38.01;101103.00;4957307;28;45485;-72
2023/07/11 02:28:05;;;;;;;;;8.00;4.00;;;;;25.55;38.44;101105.84;4958178;28;46368;-73
2023/07/11 02:30:32;;;;;;;;;5.50;3.25;;;;;25.50;38.16;101091.81;4958561;28;45650;-73
2023/07/11 02:32:58;;;;;;;;;4.75;4.00;;;;;25.71;38.30;101127.31;4958178;28;45334;-75
2023/07/11 02:35:27;;;;;;;;;3.25;2.25;;;;;25.83;38.60;101144.56;4958156;28;45357;-74
2023/07/11 02:37:52;;;;;;;;;3.25;3.25;;;;;25.70;38.71;101121.09;4957945;28;45502;-75
2023/07/11 02:40:18;;;;;;;;;7.25;5.00;;;;;25.79;38.66;101142.06;4957681;28;45390;-72
2023/07/11 02:42:44;;;;;;;;;4.00;4.00;;;;;25.37;38.44;101071.03;4958889;28;45252;-74
2023/07/11 02:45:11;;;;;;;;;4.00;4.00;;;;;25.71;38.45;101124.63;4957924;28;45484;-71
2023/07/11 02:47:37;;;;;;;;;6.00;3.25;;;;;25.63;38.53;101103.63;4957802;28;45988;-73
2023/07/11 02:50:04;;;;;;;;;3.75;3.75;;;;;25.38;38.98;101069.22;4958315;28;45567;-74
2023/07/11 02:52:29;;;;;;;;;5.25;4.25;;;;;25.43;38.66;101074.34;4957949;28;45470;-71
2023/07/11 02:54:55;;;;;;;;;5.00;4.00;;;;;25.62;38.98;101127.81;4958353;28;45350;-73
2023/07/11 02:57:20;;;;;;;;;4.75;4.00;;;;;25.45;39.17;101104.63;4957985;28;45441;-74
2023/07/11 02:59:46;;;;;;;;;3.75;3.75;;;;;25.56;39.40;101129.91;4957987;28;45416;-74
2023/07/11 03:02:12;;;;;;;;;3.75;3.75;;;;;25.14;40.02;101080.28;4958272;28;45711;-75
2023/07/11 03:04:37;;;;;;;;;4.00;4.00;;;;;25.35;39.82;101126.56;4958259;28;45375;-74
2023/07/11 03:07:03;;;;;;;;;6.25;4.25;;;;;25.08;40.05;101085.09;4958091;28;45581;-74
2023/07/11 03:09:32;;;;;;;;;4.50;4.00;;;;;25.01;39.68;101087.25;4957592;28;45551;-74
2023/07/11 03:11:58;;;;;;;;;7.00;5.50;;;;;25.06;40.03;101122.72;4957464;28;45531;-74
2023/07/11 03:14:23;;;;;;;;;8.33;7.33;;;;;24.76;40.50;101085.00;4959870;28;45426;-75
2023/07/11 03:16:51;;;;;;;;;7.50;7.00;;;;;24.74;40.37;101092.22;4959085;28;45584;-71
2023/07/11 03:19:19;;;;;;;;;9.00;6.00;;;;;24.86;40.79;101118.38;4959007;28;45517;-75
2023/07/11 03:21:45;;;;;;;;;5.50;5.50;;;;;24.70;40.73;101101.38;4962690;28;45187;-76
2023/07/11 03:24:11;;;;;;;;;8.67;8.67;;;;;24.75;40.93;101107.38;4960960;28;45608;-76
2023/07/11 03:26:36;;;;;;;;;7.00;7.00;;;;;24.48;41.19;101085.53;4960894;28;45235;-75
2023/07/11 03:29:02;;;;;;;;;7.00;6.00;;;;;24.07;41.48;101041.13;4960802;28;45345;-75
2023/07/11 03:31:28;;;;;;;;;6.00;6.00;;;;;;;;4961277;28;45368;-75
2023/07/11 03:33:53;;;;;;;;;8.00;6.00;;;;;23.94;42.19;101029.28;4959364;28;45409;-73
2023/07/11 03:36:20;;;;;;;;;8.33;5.33;;;;;24.27;42.38;101098.13;4959241;28;47844;-76
2023/07/11 03:38:46;;;;;;;;;7.33;7.33;;;;;24.01;42.94;101046.78;4959273;28;45280;-74
2023/07/11 03:41:12;;;;;;;;;10.33;8.00;;;;;24.27;42.73;101093.66;4959048;28;45358;-76
2023/07/11 03:44:02;;;;;;;;;10.33;7.67;;;;;24.13;43.61;101091.69;4950324;28;45294;-78
2023/07/11 03:46:28;;;;;;;;;7.67;6.00;;;;;23.36;43.62;100981.28;4961820;28;46292;-76
2023/07/11 03:48:54;;;;;;;;;9.33;8.33;;;;;23.68;44.06;101076.88;4960936;28;45472;-78
2023/07/11 03:51:20;;;;;;;;;3.67;3.67;;;;;23.64;44.75;101056.56;4976265;28;45348;-77
2023/07/11 03:53:46;;;;;;;;;7.33;5.33;;;;;23.31;44.77;101012.72;4961343;28;45524;-76
2023/07/11 03:56:12;;;;;;;;;7.33;7.33;;;;;23.22;45.10;101012.19;4961043;28;46831;-77
2023/07/11 03:58:38;;;;;;;;;11.00;8.00;;;;;23.54;45.32;101087.34;4962713;28;45470;-75
2023/07/11 04:01:04;;;;;;;;;10.33;7.67;;;;;23.22;45.62;101052.25;4965622;28;45265;-75
2023/07/11 04:03:33;;;;;;;;;9.67;7.67;;;;;23.45;45.17;101085.09;4964707;28;45235;-77
2023/07/11 04:05:58;;;;;;;;;8.67;7.33;;;;;23.45;45.72;101088.63;4962751;28;45707;-78
2023/07/11 04:08:24;;;;;;;;;7.33;6.00;;;;;23.27;46.49;101066.28;4962740;28;45416;-77
2023/07/11 04:10:49;;;;;;;;;7.33;5.67;;;;;23.40;45.68;101087.97;4960119;28;45380;-77
2023/07/11 04:13:15;;;;;;;;;7.00;6.33;;;;;23.21;46.05;101065.72;4961329;28;45376;-77
2023/07/11 04:15:40;;;;;;;;;7.67;6.00;;;;;23.37;46.01;101081.91;4961326;28;46094;-77
2023/07/11 04:18:06;;;;;;;;;9.00;7.00;;;;;23.20;46.28;101071.97;4962113;28;45497;-77
2023/07/11 04:20:35;;;;;;;;;10.33;7.33;;;;;23.23;46.17;101082.50;4972475;28;45359;-76
2023/07/11 04:23:01;;;;;;;;;6.00;6.00;;;;;23.12;46.05;101085.69;4975995;28;45224;-76
2023/07/11 04:25:27;;;;;;;;;9.67;6.33;;;;;22.61;45.99;100993.56;4960729;28;46369;-75
2023/07/11 04:27:54;;;;;;;;;8.67;7.67;;;;;22.79;45.30;100998.06;4960603;28;46086;-77
2023/07/11 04:30:19;;;;;;;;;11.33;6.33;;;;;23.20;45.60;101088.88;4960724;28;45460;-76
2023/07/11 04:32:45;;;;;;;;;8.00;7.67;;;;;22.76;45.89;101008.91;4974557;28;45373;-77
2023/07/11 04:35:14;;;;;;;;;7.33;5.67;;;;;23.20;45.83;101078.19;4959184;28;46049;-75
2023/07/11 04:37:40;;;;;;;;;6.67;6.33;;;;;23.20;45.47;101071.97;4958383;28;45422;-76
2023/07/11 04:40:11;;;;;;;;;10.00;7.33;;;;;23.23;45.90;101074.50;4959522;28;45357;-77
2023/07/11 04:42:38;;;;;;;;;8.67;7.67;;;;;23.29;45.46;101075.09;4966377;28;45627;-77
2023/07/11 04:45:05;;;;;;;;;11.33;9.00;;;;;23.31;45.71;101069.69;4959231;28;45412;-77
2023/07/11 04:47:31;;;;;;;;;7.67;7.00;;;;;22.82;45.62;100992.59;4959949;28;45739;-77
2023/07/11 04:49:57;;;;;;;;;9.00;7.00;;;;;23.19;45.38;101056.91;4959510;28;45580;-78
2023/07/11 04:52:24;;;;;;;;;7.67;7.67;;;;;23.17;45.42;101038.25;4959785;28;45432;-75
2023/07/11 04:54:50;;;;;;;;;11.67;8.33;;;;;23.37;45.42;101064.06;4974193;28;47698;-79
2023/07/11 04:57:16;;;;;;;;;6.67;6.33;;;;;22.59;45.30;100931.34;4959672;28;45269;-78
2023/07/11 04:59:41;;;;;;;;;7.33;6.33;;;;;23.49;45.34;101063.50;4960250;28;45371;-78
2023/07/11 05:02:07;;;;;;;;;7.33;7.00;;;;;23.07;44.92;100978.16;4959336;28;45506;-78
2023/07/11 05:04:32;;;;;;;;;10.33;8.00;;;;;23.55;44.84;101054.31;4959820;28;45439;-79
2023/07/11 05:07:00;;;;;;;;;8.00;7.00;;;;;23.66;44.92;101059.16;4959460;28;45314;-78
2023/07/11 05:09:28;;;;;;;;;7.00;7.00;;;;;23.51;44.59;101023.31;4959507;28;45488;-78
2023/07/11 05:11:54;;;;;;;;;9.00;6.33;;;;;23.47;44.56;101001.22;4959960;28;45422;-77
2023/07/11 05:14:20;;;;;;;;;4.50;4.50;;;;;23.27;44.84;100959.38;4958323;28;45709;-77
2023/07/11 05:16:45;;;;;;;;;8.67;6.33;;;;;23.74;44.28;101013.38;4959585;28;45502;-77
2023/07/11 05:19:11;;;;;;;;;6.00;6.00;;;;;24.14;44.13;101068.44;4960088;28;45425;-77
2023/07/11 05:21:43;;;;;;;;;7.00;7.00;;;;;24.26;44.28;101064.31;4959556;28;45402;-78
2023/07/11 05:24:09;;;;;;;;;5.67;5.67;;;;;24.31;43.82;101055.09;4958400;28;45583;-78
2023/07/11 05:26:36;;;;;;;;;11.67;8.33;;;;;24.62;43.40;101064.28;4959451;28;45428;-74
2023/07/11 05:29:04;;;;;;;;;7.33;5.33;;;;;24.74;42.90;101049.38;4957857;28;45401;-77
2023/07/11 05:31:30;;;;;;;;;11.00;7.00;;;;;24.92;42.96;101053.78;4959192;28;45368;-76
2023/07/11 05:33:56;;;;;;;;;7.67;5.67;;;;;24.53;42.58;100979.91;4958983;28;46115;-76
2023/07/11 05:36:31;;;;;;;;;10.00;7.00;;;;;25.10;41.82;101034.97;4959088;28;45376;-77
2023/07/11 05:39:16;;;;;;;;;5.00;5.00;;;;;24.71;41.68;100955.81;4959015;28;45362;-74
2023/07/11 05:41:46;;;;;;;;;5.00;5.00;;;;;25.37;41.87;101046.91;4959429;28;45481;-75
2023/07/11 05:44:13;;;;;;;;;12.33;8.00;;;;;25.18;40.83;101000.63;4959064;28;46056;-74
2023/07/11 05:46:39;;;;;;;;;5.33;5.33;;;;;25.47;40.87;101030.31;4958972;28;45551;-76
2023/07/11 05:49:05;;;;;;;;;5.00;5.00;;;;;25.79;40.71;101061.56;4959135;28;45248;-77
2023/07/11 05:51:31;;;;;;;;;6.00;6.00;;;;;25.89;40.39;101055.69;4959165;28;45457;-76
2023/07/11 05:53:57;;;;;;;;;5.00;5.00;;;;;25.99;40.35;101048.84;4958817;28;45497;-75
2023/07/11 05:56:23;;;;;;;;;8.25;5.00;;;;;25.30;40.31;100915.97;4959593;28;45452;-77
2023/07/11 05:58:50;;;;;;;;;8.00;8.00;;;;;26.03;40.14;101020.91;4960603;28;45315;-77
2023/07/11 06:01:20;;;;;;;;;10.00;9.00;;;;;26.05;39.18;101018.09;4958566;28;45533;-77
2023/07/11 06:03:50;;;;;;;;;6.50;6.00;;;;;26.00;39.95;100994.22;4957310;28;45883;-76
2023/07/11 06:06:18;;;;;;;;;8.00;5.75;;;;;25.64;39.32;100933.66;4973737;28;45585;-76
2023/07/11 06:08:44;;;;;;;;;8.25;7.00;;;;;26.22;39.47;101020.69;4959230;28;45401;-75
2023/07/11 06:11:10;;;;;;;;;5.75;5.75;;;;;26.16;39.21;100995.03;4958381;28;45369;-74
2023/07/11 06:13:39;;;;;;;;;5.75;4.50;;;;;26.55;39.21;101044.69;4958180;28;46139;-75
2023/07/11 06:16:08;;;;;;;;;7.00;5.75;;;;;26.45;39.48;101024.66;4958079;28;45507;-73
2023/07/11 06:18:36;;;;;;;;;9.50;7.25;;;;;26.48;40.01;101037.94;4958536;28;45374;-74
2023/07/11 06:21:03;;;;;;;;;5.00;4.00;;;;;26.60;39.87;101042.59;4958475;28;45448;-74
2023/07/11 06:23:29;;;;;;;;;5.50;4.50;;;;;26.54;39.53;101016.09;4958100;28;46420;-74
2023/07/11 06:25:55;;;;;;;;;5.75;5.00;;;;;26.33;39.36;100977.06;4973414;28;45460;-72
2023/07/11 06:28:20;;;;;;;;;5.00;5.00;;;;;26.38;39.41;100983.00;4959489;28;45519;-74
2023/07/11 06:30:46;;;;;;;;;5.00;5.00;;;;;25.93;39.33;100915.03;4959020;28;45456;-73
2023/07/11 06:33:12;;;;;;;;;5.00;5.00;;;;;25.75;39.27;100885.63;4957958;28;46107;-73
2023/07/11 06:35:40;;;;;;;;;8.25;5.00;;;;;26.30;39.55;100983.47;4957544;28;45552;-72
2023/07/11 06:38:07;;;;;;;;;6.50;6.00;;;;;26.59;39.49;101008.59;4956483;28;45359;-67
2023/07/11 06:40:33;;;;;;;;;8.50;6.00;;;;;26.80;39.41;101030.63;4958100;28;45278;-66
2023/07/11 06:42:58;;;;;;;;;7.00;5.25;;;;;26.82;39.09;101035.91;4957580;28;45439;-65
2023/07/11 06:45:24;;;;;;;;;6.00;5.50;;;;;26.88;39.31;101027.44;4957446;28;45410;-66
2023/07/11 06:47:50;;;;;;;;;5.50;5.50;;;;;26.97;38.88;101023.34;4972919;28;45986;-65
2023/07/11 06:50:20;;;;;;;;;6.00;6.00;;;;;26.90;38.89;101006.72;4957814;28;45310;-65
2023/07/11 06:52:45;;;;;;;;;6.25;5.25;;;;;27.14;38.75;101028.50;4957414;28;46630;-66
2023/07/11 06:55:12;;;;;;;;;6.75;6.00;;;;;27.18;38.70;101010.38;4957452;28;45476;-66
2023/07/11 06:57:38;;;;;;;;;7.75;4.25;;;;;27.32;38.17;101018.47;4959731;28;45493;-67
2023/07/11 07:00:06;;;;;;;;;7.00;5.00;;;;;27.19;38.66;100998.66;4961126;28;45437;-67
2023/07/11 07:02:32;;;;;;;;;6.00;5.00;;;;;27.27;38.64;101005.31;4960429;28;45867;-64
2023/07/11 07:05:10;;;;;;;;;4.00;4.00;;;;;27.41;38.73;101017.03;4960915;28;45435;-64
2023/07/11 07:07:35;;;;;;;;;6.00;5.00;;;;;27.32;38.21;100978.13;4960696;28;45408;-64
2023/07/11 07:10:01;;;;;;;;;7.50;5.50;;;;;27.58;38.07;101019.47;4961272;28;45416;-64
2023/07/11 07:12:27;;;;;;;;;5.00;5.00;;;;;27.66;37.86;101017.13;4961094;28;46189;-64
2023/07/11 07:14:52;;;;;;;;;5.75;5.00;;;;;27.71;37.34;101000.69;4958496;28;45522;-67
2023/07/11 07:17:18;;;;;;;;;4.25;2.25;;;;;27.76;37.96;101008.47;4949839;28;46122;-64
2023/07/11 07:19:43;;;;;;;;;3.25;3.25;;;;;27.65;37.89;101007.34;4941196;28;45514;-64
2023/07/11 07:22:09;;;;;;;;;5.25;3.00;;;;;27.73;37.93;101004.13;4951579;28;45744;-66
2023/07/11 07:24:35;;;;;;;;;7.00;5.00;;;;;27.84;37.68;101008.88;4961598;28;45527;-64
2023/07/11 07:27:02;;;;;;;;;5.00;5.00;;;;;27.89;37.50;101002.19;4962350;28;45473;-66
2023/07/11 07:29:28;;;;;;;;;6.50;6.50;;;;;28.00;37.18;101001.50;4981842;28;45266;-67
2023/07/11 07:31:53;;;;;;;;;4.00;4.00;;;;;28.03;37.63;101008.50;4970876;28;46386;-67
2023/07/11 07:34:19;;;;;;;;;7.00;6.00;;;;;28.10;37.31;100994.50;4980713;28;45764;-68
2023/07/11 07:36:45;;;;;;;;;6.25;4.00;;;;;28.16;37.07;100993.22;4977103;28;48251;-66
2023/07/11 07:39:11;;;;;;;;;5.00;5.00;;;;;28.10;36.46;100969.44;4960676;28;45617;-65
2023/07/11 07:41:37;;;;;;;;;6.75;5.25;;;;;28.27;36.54;100987.13;4958883;28;47311;-66
2023/07/11 07:44:03;;;;;;;;;4.75;4.75;;;;;28.36;36.90;100989.19;4960272;28;45460;-64
2023/07/11 07:46:29;;;;;;;;;6.00;4.50;;;;;28.28;36.58;100987.00;4960517;28;45297;-66
2023/07/11 07:48:54;;;;;;;;;5.25;5.25;;;;;27.91;37.01;100956.34;4960219;28;45524;-67
2023/07/11 07:51:20;;;;;;;;;5.50;5.00;;;;;28.08;37.14;100985.69;4960405;28;45365;-66
2023/07/11 07:53:46;;;;;;;;;5.00;4.00;;;;;28.14;36.96;100981.69;4959349;28;45574;-66
2023/07/11 07:56:19;;;;;;;;;8.25;5.00;;;;;28.24;36.94;100982.81;4960085;28;45428;-66
2023/07/11 07:58:45;;;;;;;;;3.50;3.50;;;;;28.34;36.85;100981.19;4961024;28;45434;-64
2023/07/11 08:01:16;;;;;;;;;4.75;4.75;;;;;28.28;36.69;100969.97;4959915;28;46065;-65
2023/07/11 08:03:42;;;;;;;;;6.00;4.75;;;;;28.38;37.23;100980.97;4960032;28;45453;-65
2023/07/11 08:06:09;;;;;;;;;5.00;4.00;;;;;28.47;36.86;100980.38;4959472;28;45372;-65
2023/07/11 08:08:34;;;;;;;;;4.50;4.50;;;;;28.53;36.81;100978.13;4960310;28;45338;-66
2023/07/11 08:11:06;;;;;;;;;7.50;4.25;;;;;28.43;36.36;100955.47;4960639;28;46296;-65
2023/07/11 08:13:32;;;;;;;;;5.00;5.00;;;;;28.65;36.65;100970.16;4958445;28;45348;-66
2023/07/11 08:15:58;;;;;;;;;4.75;4.75;;;;;28.64;36.41;100949.56;4959695;28;45406;-68
2023/07/11 08:18:24;;;;;;;;;4.25;4.00;;;;;28.77;36.20;100958.50;4960412;28;45393;-67
2023/07/11 08:20:52;;;;;;;;;6.75;5.00;;;;;28.67;36.82;100942.13;4959571;28;45610;-66
2023/07/11 08:23:21;;;;;;;;;6.00;5.00;;;;;28.60;37.17;100940.84;4960365;28;45399;-66
2023/07/11 08:25:54;;;;;;;;;6.75;5.75;;;;;28.78;36.59;100943.19;4960484;28;45298;-65
2023/07/11 08:28:20;;;;;;;;;7.00;5.75;;;;;28.85;37.11;100942.63;4959971;28;45279;-65
2023/07/11 08:30:46;;;;;;;;;9.00;5.50;;;;;28.87;36.57;100929.06;4958123;28;47286;-65
2023/07/11 08:33:12;;;;;;;;;8.00;4.25;;;;;29.01;36.75;100939.72;4959654;28;45361;-67
2023/07/11 08:35:37;;;;;;;;;6.00;6.00;;;;;29.00;37.06;100938.00;4974616;28;45350;-69
2023/07/11 08:38:04;;;;;;;;;6.25;4.75;;;;;28.99;36.45;100949.75;4959814;28;45234;-67
2023/07/11 08:40:33;;;;;;;;;6.50;6.00;;;;;28.81;36.29;100935.78;4959273;28;46033;-67
2023/07/11 08:43:04;;;;;;;;;6.00;6.00;;;;;28.86;36.75;100940.84;4959194;28;45584;-68
2023/07/11 08:45:40;;;;;;;;;4.75;4.75;;;;;28.72;36.38;100942.66;4960041;28;45400;-67
2023/07/11 08:48:12;;;;;;;;;5.75;5.25;;;;;28.66;36.77;100942.22;4960530;28;45388;-66
2023/07/11 08:50:47;;;;;;;;;5.00;4.00;;;;;28.52;36.76;100922.53;4959231;28;45730;-66
2023/07/11 08:53:18;;;;;;;;;7.60;6.00;;;;;28.59;37.47;100938.25;4958901;28;45448;-66
2023/07/11 08:55:52;;;;;;;;;4.50;4.50;;;;;28.46;37.64;100924.78;4959156;28;45361;-67
2023/07/11 08:58:29;;;;;;;;;5.00;5.00;;;;;28.36;37.06;100916.47;4959167;28;45574;-66
2023/07/11 09:00:56;;;;;;;;;7.75;5.25;;;;;28.47;37.38;100934.59;4959992;28;45405;-64
2023/07/11 09:03:30;;;;;;;;;6.25;5.25;;;;;28.52;37.65;100927.03;4959564;28;45291;-65
2023/07/11 09:06:01;;;;;;;;;5.75;5.50;;;;;28.56;37.29;100917.78;4959335;28;45286;-65
2023/07/11 09:08:27;;;;;;;;;6.50;6.50;;;;;28.59;37.09;100924.78;4959650;28;45429;-67
2023/07/11 09:11:37;;;;;;;;;5.50;5.00;;;;;28.52;37.27;100908.16;4959437;28;46119;-65
2023/07/11 09:14:36;;;;;;;;;6.00;6.00;;;;;28.56;37.38;100911.53;4902107;28;45613;-67
2023/07/11 09:17:21;;;;;;;;;10.50;6.75;;;;;28.62;37.17;100909.28;4908044;28;45594;-66
2023/07/11 09:20:03;;;;;;;;;6.25;6.00;;;;;28.60;37.77;100904.97;4949450;28;45550;-65
2023/07/11 09:22:42;;;;;;;;;6.50;5.00;;;;;28.68;37.49;100897.19;4959205;28;45704;-68
2023/07/11 09:25:17;;;;;;;;;6.75;6.75;;;;;28.82;37.14;100909.66;4957600;28;45903;-67
2023/07/11 09:27:48;;;;;;;;;8.00;5.75;;;;;28.74;37.54;100894.06;4957592;28;45485;-67
2023/07/11 09:30:32;;;;;;;;;6.00;5.00;;;;;28.80;37.44;100904.38;4958903;28;45227;-65
2023/07/11 09:33:19;;;;;;;;;5.75;5.00;;;;;28.98;37.12;100895.94;4957195;28;46672;-66
2023/07/11 09:35:45;;;;;;;;;7.75;6.50;;;;;29.06;36.84;100889.00;4958643;28;45438;-67
2023/07/11 09:38:40;;;;;;;;;7.00;7.00;;;;;29.05;36.82;100881.03;4958875;28;45458;-66
2023/07/11 09:41:18;;;;;;;;;7.25;6.00;;;;;29.14;36.92;100883.09;4957552;28;45312;-68
2023/07/11 09:43:43;;;;;;;;;5.00;5.00;;;;;29.11;36.52;100856.34;4956981;28;46898;-69
2023/07/11 09:46:14;;;;;;;;;8.00;7.00;;;;;29.19;36.71;100875.53;4958750;28;45298;-69
2023/07/11 09:48:42;;;;;;;;;9.25;6.25;;;;;29.22;36.57;100871.72;4959371;28;45359;-69
2023/07/11 09:51:36;;;;;;;;;8.00;6.50;;;;;29.30;36.88;100875.56;4960472;28;45229;-67
2023/07/11 09:54:12;;;;;;;;;5.50;5.50;;;;;29.33;36.21;100866.41;4959630;28;46054;-68
2023/07/11 09:56:43;;;;;;;;;7.40;6.60;;;;;29.31;36.57;100849.47;4959117;28;45355;-68
2023/07/11 09:59:11;;;;;;;;;8.00;6.50;;;;;29.41;36.03;100872.06;4958168;28;45353;-67
2023/07/11 10:01:37;;;;;;;;;8.25;5.25;;;;;29.30;35.96;100850.44;4959505;28;45488;-67
2023/07/11 10:04:07;;;;;;;;;9.00;6.00;;;;;29.42;36.24;100856.75;4958414;28;45468;-68
2023/07/11 10:06:41;;;;;;;;;9.00;8.00;;;;;29.28;35.76;100831.69;4958399;28;45412;-68
2023/07/11 10:09:31;;;;;;;;;7.75;7.75;;;;;29.33;35.62;100847.53;4957305;28;45379;-68
2023/07/11 10:11:59;;;;;;;;;8.00;8.00;;;;;29.39;35.73;100839.81;4951434;28;45447;-67
2023/07/11 10:14:39;;;;;;;;;6.50;6.50;;;;;29.49;35.48;100836.41;4958091;28;45371;-68
2023/07/11 10:17:23;;;;;;;;;8.25;8.25;;;;;29.63;35.42;100836.22;4958211;28;45378;-67
2023/07/11 10:19:57;;;;;;;;;8.50;7.00;;;;;29.71;34.68;100841.94;4958021;28;45468;-67
2023/07/11 10:22:26;;;;;;;;;7.00;5.00;;;;;29.71;35.30;100832.97;4956904;28;45620;-67
2023/07/11 10:25:21;;;;;;;;;7.25;6.00;;;;;29.76;34.74;100833.50;4958020;28;46112;-67
2023/07/11 10:27:56;;;;;;;;;6.60;6.60;;;;;29.90;34.77;100827.88;4952652;28;45323;-67
2023/07/11 10:30:30;;;;;;;;;8.00;6.75;;;;;29.98;35.29;100822.72;4957099;28;45458;-67
2023/07/11 10:33:05;;;;;;;;;7.50;5.75;;;;;30.01;35.18;100819.78;4958207;28;45760;-68
2023/07/11 10:35:34;;;;;;;;;7.00;7.00;;;;;30.11;34.50;100830.75;4957709;28;46531;-68
2023/07/11 10:38:04;;;;;;;;;6.20;6.20;;;;;30.20;34.47;100808.38;4958270;28;45433;-68
2023/07/11 10:40:45;;;;;;;;;6.00;6.00;;;;;30.25;33.80;100807.16;4958059;28;45380;-67
2023/07/11 10:43:32;;;;;;;;;8.25;8.25;;;;;30.11;33.78;100794.75;4958524;28;45502;-65
2023/07/11 10:46:10;;;;;;;;;9.50;5.75;;;;;30.28;34.04;100804.22;4958874;28;46011;-66
2023/07/11 10:48:47;;;;;;;;;8.00;6.40;;;;;30.44;34.11;100802.03;4957891;28;45365;-67
2023/07/11 10:51:27;;;;;;;;;8.00;7.50;;;;;30.60;34.16;100810.59;4958642;28;45378;-67
2023/07/11 10:54:09;;;;;;;;;7.75;6.75;;;;;30.73;33.19;100798.78;4958613;28;45281;-67
2023/07/11 10:56:46;;;;;;;;;8.50;7.00;;;;;30.78;33.04;100786.63;4958988;28;46258;-67
2023/07/11 10:59:14;;;;;;;;;7.40;7.40;;;;;30.87;32.53;100784.16;4959534;28;45372;-66
2023/07/11 11:01:46;;;;;;;;;6.20;5.60;;;;;30.97;32.64;100777.03;4958037;28;45353;-67
2023/07/11 11:04:31;;;;;;;;;10.00;7.75;;;;;31.01;32.25;100771.25;4958088;28;45495;-68
2023/07/11 11:07:18;;;;;;;;;10.00;7.40;;;;;30.95;31.93;100757.38;4958501;28;45980;-67
2023/07/11 11:09:44;;;;;;;;;10.00;8.60;;;;;31.06;31.95;100765.41;4957311;28;45384;-67
2023/07/11 11:12:41;;;;;;;;;8.00;8.00;;;;;31.04;31.62;100765.56;4957784;28;45307;-67
2023/07/11 11:15:22;;;;;;;;;6.25;5.75;;;;;31.13;31.08;100761.19;4943418;28;46432;-67
2023/07/11 11:18:04;;;;;;;;;6.20;5.20;;;;;31.31;31.37;100766.06;4958337;28;46239;-67
2023/07/11 11:20:45;;;;;;;;;7.60;5.20;;;;;31.43;31.52;100756.94;4957754;28;45443;-67
2023/07/11 11:23:40;;;;;;;;;7.40;7.40;;;;;31.63;31.02;100756.06;4957464;28;45455;-66
2023/07/11 11:26:27;;;;;;;;;5.80;5.80;;;;;31.83;30.85;100750.78;4957952;28;45919;-67
2023/07/11 11:29:10;;;;;;;;;7.60;6.00;;;;;31.70;30.63;100750.97;4956983;28;46252;-66
2023/07/11 11:31:47;;;;;;;;;7.80;4.40;;;;;31.64;30.61;100749.66;4957406;28;45891;-66
2023/07/11 11:34:15;;;;;;;;;5.80;5.80;;;;;31.75;30.91;100747.84;4957554;28;45430;-66